Language: 


Des rapports , des résumés tant et plus, au choix de chacun....


Données Historiques de Météogheer
Journalier Rapport pour Mars 7, 2018 Unitée:  Les deux    Impériale   Métrique
Suivant Jour »
Journalier Hebdomadaire Mensuel Annuel Sur mesure
  Max: Min: Moyenne:
Température: 46.9 °F /  8.3 °C 36 °F /  2.2 °C 41.2 °F /  5.1 °C
Point de rosée: 46.4 °F /  8.0 °C 33.8 °F /  1.0 °C 40.3 °F /  4.6 °C
Humidité: 98% 86% 95%
Vent: 16.6mph /  26.7km/h - 3.3mph /  5.3km/h
Rafales: 16.6mph /  26.7km/h - -
Vent- - WSW
Pression: 29.5 in /  999.9 hPa 29.2 in /  988.0 hPa -
Pluie: 0.3 in /  7.6 mm    
Historical Graphs
 
 
Données tabulaires pour Mars 7, 2018
Heure Température Point de rosée Pression Vent Vent Rafales Humidité Pluie Taux (Horaire) Conditions
00:00 37 °F /  2.8 °C 35.6 °F /  2.0 °C 29.2in /  990.1hPa NNE 2.7mph /  4.3km/h 3.8mph /  6.1km/h 89% 0in /  0.0mm
00:10 37 °F /  2.8 °C 35.6 °F /  2.0 °C 29.2in /  990.1hPa Calm   3.4mph /  5.5km/h 89% 0in /  0.0mm
00:20 36.7 °F /  2.6 °C 33.8 °F /  1.0 °C 29.2in /  990.1hPa Calm   3.6mph /  5.8km/h 90% 0in /  0.0mm
00:25 36.7 °F /  2.6 °C 33.8 °F /  1.0 °C 29.2in /  990.1hPa Calm   2.9mph /  4.7km/h 90% 0in /  0.0mm
00:30 36.5 °F /  2.5 °C 33.8 °F /  1.0 °C 29.2in /  990.1hPa Calm   3.4mph /  5.5km/h 90% 0in /  0.0mm
00:40 36.3 °F /  2.4 °C 33.8 °F /  1.0 °C 29.2in /  990.1hPa Calm     90% 0in /  0.0mm
00:45 36.3 °F /  2.4 °C 33.8 °F /  1.0 °C 29.2in /  989.1hPa Calm     91% 0in /  0.0mm
00:50 36.3 °F /  2.4 °C 33.8 °F /  1.0 °C 29.2in /  989.1hPa Calm     91% 0in /  0.0mm
00:55 36.1 °F /  2.3 °C 33.8 °F /  1.0 °C 29.2in /  989.1hPa Calm     91% 0in /  0.0mm
01:00 36 °F /  2.2 °C 33.8 °F /  1.0 °C 29.2in /  989.1hPa Calm     91% 0in /  0.0mm
01:10 36.3 °F /  2.4 °C 33.8 °F /  1.0 °C 29.2in /  989.1hPa Calm     92% 0in /  0.0mm
01:20 36.5 °F /  2.5 °C 35.6 °F /  2.0 °C 29.2in /  990.1hPa Calm     92% 0in /  0.0mm
01:30 36.9 °F /  2.7 °C 35.6 °F /  2.0 °C 29.2in /  989.1hPa Calm     93% 0in /  0.0mm
01:35 37 °F /  2.8 °C 35.6 °F /  2.0 °C 29.2in /  989.1hPa Calm     94% 0in /  0.0mm
01:40 37.2 °F /  2.9 °C 35.6 °F /  2.0 °C 29.2in /  989.1hPa Calm     94% 0in /  0.0mm
01:50 37.6 °F /  3.1 °C 35.6 °F /  2.0 °C 29.2in /  990.1hPa Calm     94% 0in /  0.0mm
01:55 37.6 °F /  3.1 °C 35.6 °F /  2.0 °C 29.2in /  990.1hPa Calm     94% 0in /  0.0mm
02:05 37.9 °F /  3.3 °C 37.4 °F /  3.0 °C 29.2in /  989.1hPa Calm     94% 0in /  0.0mm
02:10 37.9 °F /  3.3 °C 37.4 °F /  3.0 °C 29.2in /  989.1hPa Calm   1.6mph /  2.6km/h 94% 0in /  0.0mm
02:20 37.9 °F /  3.3 °C 37.4 °F /  3.0 °C 29.2in /  989.1hPa Calm     94% 0in /  0.0mm
02:25 37.9 °F /  3.3 °C 37.4 °F /  3.0 °C 29.2in /  989.1hPa Calm     94% 0in /  0.0mm
02:30 37.9 °F /  3.3 °C 37.4 °F /  3.0 °C 29.2in /  989.1hPa Calm     94% 0in /  0.0mm
02:40 38.3 °F /  3.5 °C 37.4 °F /  3.0 °C 29.2in /  989.1hPa Calm   0.9mph /  1.4km/h 95% 0in /  0.0mm
02:50 38.5 °F /  3.6 °C 37.4 °F /  3.0 °C 29.2in /  989.1hPa Calm     95% 0in /  0.0mm
02:55 38.5 °F /  3.6 °C 37.4 °F /  3.0 °C 29.2in /  989.1hPa Calm     95% 0in /  0.0mm
03:00 38.5 °F /  3.6 °C 37.4 °F /  3.0 °C 29.2in /  989.1hPa Calm     95% 0in /  0.0mm
03:10 38.5 °F /  3.6 °C 37.4 °F /  3.0 °C 29.2in /  989.1hPa Calm     95% 0in /  0.0mm
03:20 38.5 °F /  3.6 °C 37.4 °F /  3.0 °C 29.2in /  989.1hPa Calm     95% 0in /  0.0mm
03:30 38.5 °F /  3.6 °C 37.4 °F /  3.0 °C 29.2in /  989.1hPa Calm     95% 0in /  0.0mm
03:35 38.5 °F /  3.6 °C 37.4 °F /  3.0 °C 29.2in /  989.1hPa Calm     95% 0in /  0.0mm
03:40 38.5 °F /  3.6 °C 37.4 °F /  3.0 °C 29.2in /  989.1hPa Calm   0.9mph /  1.4km/h 95% 0in /  0.0mm
03:50 38.7 °F /  3.7 °C 37.4 °F /  3.0 °C 29.2in /  989.1hPa Calm   0.9mph /  1.4km/h 95% 0in /  0.0mm
03:55 38.5 °F /  3.6 °C 37.4 °F /  3.0 °C 29.2in /  989.1hPa Calm     95% 0in /  0.0mm
04:00 38.5 °F /  3.6 °C 37.4 °F /  3.0 °C 29.2in /  989.1hPa Calm     95% 0in /  0.0mm
04:05 38.5 °F /  3.6 °C 37.4 °F /  3.0 °C 29.2in /  989.1hPa Calm     95% 0in /  0.0mm
04:10 38.3 °F /  3.5 °C 37.4 °F /  3.0 °C 29.2in /  989.1hPa Calm     95% 0in /  0.0mm
04:20 38.3 °F /  3.5 °C 37.4 °F /  3.0 °C 29.2in /  988.0hPa Calm     95% 0in /  0.0mm
04:25 38.3 °F /  3.5 °C 37.4 °F /  3.0 °C 29.2in /  988.0hPa Calm     95% 0in /  0.0mm
04:30 38.5 °F /  3.6 °C 37.4 °F /  3.0 °C 29.2in /  989.1hPa Calm     95% 0in /  0.0mm
04:40 38.1 °F /  3.4 °C 37.4 °F /  3.0 °C 29.2in /  989.1hPa Calm     95% 0in /  0.0mm
04:50 37.8 °F /  3.2 °C 37.4 °F /  3.0 °C 29.2in /  989.1hPa Calm     94% 0in /  0.0mm
05:00 37.6 °F /  3.1 °C 35.6 °F /  2.0 °C 29.2in /  989.1hPa Calm     94% 0in /  0.0mm
05:05 37.4 °F /  3.0 °C 35.6 °F /  2.0 °C 29.2in /  989.1hPa Calm     94% 0in /  0.0mm
05:10 37.4 °F /  3.0 °C 37.4 °F /  3.0 °C 29.2in /  989.1hPa Calm     95% 0in /  0.0mm
05:20 37.4 °F /  3.0 °C 37.4 °F /  3.0 °C 29.2in /  989.1hPa Calm     95% 0in /  0.0mm
05:25 37.4 °F /  3.0 °C 37.4 °F /  3.0 °C 29.2in /  989.1hPa Calm     95% 0in /  0.0mm
05:30 37.4 °F /  3.0 °C 37.4 °F /  3.0 °C 29.2in /  988.0hPa Calm     95% 0in /  0.0mm
05:40 37.4 °F /  3.0 °C 37.4 °F /  3.0 °C 29.2in /  988.0hPa Calm     95% 0in /  0.0mm
05:50 37.6 °F /  3.1 °C 37.4 °F /  3.0 °C 29.2in /  989.1hPa Calm     96% 0in /  0.0mm
05:55 37.8 °F /  3.2 °C 37.4 °F /  3.0 °C 29.2in /  989.1hPa Calm     96% 0in /  0.0mm
06:00 38.1 °F /  3.4 °C 37.4 °F /  3.0 °C 29.2in /  989.1hPa Calm     96% 0in /  0.0mm
06:10 38.3 °F /  3.5 °C 37.4 °F /  3.0 °C 29.2in /  989.1hPa Calm     97% 0in /  0.0mm
06:20 38.3 °F /  3.5 °C 37.4 °F /  3.0 °C 29.2in /  989.1hPa Calm     96% 0in /  0.0mm
06:30 38.3 °F /  3.5 °C 37.4 °F /  3.0 °C 29.2in /  988.0hPa Calm   2.7mph /  4.3km/h 96% 0in /  0.0mm
06:35 38.3 °F /  3.5 °C 37.4 °F /  3.0 °C 29.2in /  988.0hPa Calm   2.7mph /  4.3km/h 96% 0in /  0.0mm
06:40 38.5 °F /  3.6 °C 37.4 °F /  3.0 °C 29.2in /  988.0hPa Calm     96% 0in /  0.0mm
06:45 38.5 °F /  3.6 °C 37.4 °F /  3.0 °C 29.2in /  989.1hPa Calm     96% 0in /  0.0mm
06:50 38.5 °F /  3.6 °C 37.4 °F /  3.0 °C 29.2in /  989.1hPa Calm     96% 0in /  0.0mm
07:00 38.7 °F /  3.7 °C 37.4 °F /  3.0 °C 29.2in /  989.1hPa Calm     97% 0.02in /  0.5mm
07:05 38.8 °F /  3.8 °C 37.4 °F /  3.0 °C 29.2in /  989.1hPa Calm     97% 0.03in /  0.8mm
07:10 39 °F /  3.9 °C 39.2 °F /  4.0 °C 29.2in /  989.1hPa Calm     98% 0.06in /  1.5mm
07:20 39.7 °F /  4.3 °C 39.2 °F /  4.0 °C 29.2in /  989.1hPa Calm     98% 0.12in /  3.0mm
07:30 40.1 °F /  4.5 °C 41 °F /  5.0 °C 29.2in /  990.1hPa Calm     98% 0.15in /  3.8mm
07:40 40.3 °F /  4.6 °C 41 °F /  5.0 °C 29.2in /  990.1hPa Calm   2.9mph /  4.7km/h 98% 0.17in /  4.3mm
07:50 40.5 °F /  4.7 °C 41 °F /  5.0 °C 29.2in /  990.1hPa Calm     98% 0.18in /  4.6mm
08:00 40.6 °F /  4.8 °C 41 °F /  5.0 °C 29.2in /  990.1hPa Calm     98% 0.16in /  4.1mm
08:10 40.8 °F /  4.9 °C 41 °F /  5.0 °C 29.2in /  990.1hPa Calm   0.9mph /  1.4km/h 98% 0.13in /  3.3mm
08:20 41 °F /  5.0 °C 41 °F /  5.0 °C 29.3in /  991.1hPa Calm     98% 0.07in /  1.8mm
08:30 41.2 °F /  5.1 °C 41 °F /  5.0 °C 29.3in /  991.1hPa Calm     98% 0.05in /  1.3mm
08:40 41.2 °F /  5.1 °C 41 °F /  5.0 °C 29.3in /  991.1hPa Calm     98% 0.02in /  0.5mm
08:50 41.5 °F /  5.3 °C 42.8 °F /  6.0 °C 29.3in /  991.1hPa Calm     98% 0.01in /  0.3mm
09:00 41.7 °F /  5.4 °C 42.8 °F /  6.0 °C 29.2in /  990.1hPa Calm     98% 0.02in /  0.5mm
09:10 42.1 °F /  5.6 °C 42.8 °F /  6.0 °C 29.2in /  990.1hPa Calm     98% 0.01in /  0.3mm
09:20 42.8 °F /  6.0 °C 42.8 °F /  6.0 °C 29.3in /  991.1hPa Calm   1.6mph /  2.6km/h 98% 0.01in /  0.3mm
09:30 43.3 °F /  6.3 °C 42.8 °F /  6.0 °C 29.3in /  991.1hPa Calm   3.8mph /  6.1km/h 98% 0.01in /  0.3mm
09:40 43.7 °F /  6.5 °C 44.6 °F /  7.0 °C 29.3in /  991.1hPa Calm     98% 0.01in /  0.3mm
09:50 44.4 °F /  6.9 °C 44.6 °F /  7.0 °C 29.3in /  991.1hPa Calm   1.3mph /  2.1km/h 98% 0.01in /  0.3mm
10:00 44.6 °F /  7.0 °C 44.6 °F /  7.0 °C 29.3in /  991.1hPa Calm   4mph /  6.4km/h 98% 0in /  0.0mm
10:10 44.6 °F /  7.0 °C 44.6 °F /  7.0 °C 29.3in /  991.1hPa Calm   4.3mph /  6.9km/h 98% 0in /  0.0mm
10:20 44.4 °F /  6.9 °C 44.6 °F /  7.0 °C 29.3in /  992.1hPa Calm     98% 0in /  0.0mm
10:30 45 °F /  7.2 °C 44.6 °F /  7.0 °C 29.3in /  992.1hPa Calm   4.5mph /  7.2km/h 98% 0in /  0.0mm
10:40 45.7 °F /  7.6 °C 46.4 °F /  8.0 °C 29.3in /  992.1hPa WSW 2.7mph /  4.3km/h 4mph /  6.4km/h 98% 0in /  0.0mm
10:50 46.2 °F /  7.9 °C 46.4 °F /  8.0 °C 29.3in /  992.1hPa Calm   5.6mph /  9.0km/h 98% 0in /  0.0mm
11:00 46.6 °F /  8.1 °C 46.4 °F /  8.0 °C 29.3in /  992.1hPa WSW 4.3mph /  6.9km/h 6.7mph /  10.8km/h 96% 0in /  0.0mm
11:10 46.2 °F /  7.9 °C 44.6 °F /  7.0 °C 29.3in /  992.1hPa WSW 5.8mph /  9.3km/h 6.5mph /  10.5km/h 95% 0in /  0.0mm
11:20 46.6 °F /  8.1 °C 46.4 °F /  8.0 °C 29.3in /  992.1hPa Calm   6.5mph /  10.5km/h 95% 0in /  0.0mm
11:30 46.8 °F /  8.2 °C 44.6 °F /  7.0 °C 29.3in /  993.1hPa SW 4mph /  6.4km/h 6mph /  9.7km/h 94% 0in /  0.0mm
11:40 46.8 °F /  8.2 °C 44.6 °F /  7.0 °C 29.3in /  993.1hPa SSW 6.5mph /  10.5km/h 7.6mph /  12.2km/h 92% 0in /  0.0mm
11:50 46.9 °F /  8.3 °C 44.6 °F /  7.0 °C 29.3in /  993.1hPa SSW 6.3mph /  10.1km/h 7.8mph /  12.6km/h 92% 0in /  0.0mm
12:00 46.9 °F /  8.3 °C 46.4 °F /  8.0 °C 29.3in /  993.1hPa SW 6.3mph /  10.1km/h 7.4mph /  11.9km/h 93% 0in /  0.0mm
12:10 46.8 °F /  8.2 °C 44.6 °F /  7.0 °C 29.3in /  993.1hPa SW 4mph /  6.4km/h 7.6mph /  12.2km/h 92% 0in /  0.0mm
12:20 46.8 °F /  8.2 °C 44.6 °F /  7.0 °C 29.3in /  993.1hPa SW 6.3mph /  10.1km/h 7.8mph /  12.6km/h 93% 0in /  0.0mm
12:30 46.6 °F /  8.1 °C 44.6 °F /  7.0 °C 29.3in /  993.1hPa SW 6.3mph /  10.1km/h 9.6mph /  15.4km/h 93% 0in /  0.0mm
12:40 46.6 °F /  8.1 °C 44.6 °F /  7.0 °C 29.3in /  993.1hPa WSW 5.6mph /  9.0km/h 8.1mph /  13.0km/h 94% 0.01in /  0.3mm
12:50 46.8 °F /  8.2 °C 46.4 °F /  8.0 °C 29.3in /  993.1hPa SW 4.3mph /  6.9km/h 7.4mph /  11.9km/h 95% 0.02in /  0.5mm
12:55 46.9 °F /  8.3 °C 46.4 °F /  8.0 °C 29.3in /  993.1hPa WSW 4mph /  6.4km/h 5.8mph /  9.3km/h 95% 0.02in /  0.5mm
13:00 46.9 °F /  8.3 °C 46.4 °F /  8.0 °C 29.3in /  993.1hPa WSW 3.6mph /  5.8km/h 6mph /  9.7km/h 96% 0.02in /  0.5mm
13:10 46.4 °F /  8.0 °C 46.4 °F /  8.0 °C 29.3in /  993.1hPa WSW 5.4mph /  8.7km/h 6mph /  9.7km/h 95% 0.04in /  1.0mm
13:15 46 °F /  7.8 °C 44.6 °F /  7.0 °C 29.3in /  993.1hPa SW 5.6mph /  9.0km/h 6mph /  9.7km/h 96% 0.04in /  1.0mm
13:20 46 °F /  7.8 °C 44.6 °F /  7.0 °C 29.3in /  993.1hPa Calm   5.8mph /  9.3km/h 96% 0.04in /  1.0mm
13:25 45.9 °F /  7.7 °C 44.6 °F /  7.0 °C 29.3in /  993.1hPa SSW 6.7mph /  10.8km/h 6.7mph /  10.8km/h 96% 0.04in /  1.0mm
13:30 45.9 °F /  7.7 °C 44.6 °F /  7.0 °C 29.3in /  993.1hPa WSW 6.3mph /  10.1km/h 8.1mph /  13.0km/h 97% 0.05in /  1.3mm
13:35 45.9 °F /  7.7 °C 44.6 °F /  7.0 °C 29.3in /  993.1hPa West 8.1mph /  13.0km/h 8.7mph /  14.0km/h 97% 0.04in /  1.0mm
13:40 45.7 °F /  7.6 °C 44.6 °F /  7.0 °C 29.3in /  993.1hPa WSW 5.6mph /  9.0km/h 8.7mph /  14.0km/h 97% 0.04in /  1.0mm
13:45 45.7 °F /  7.6 °C 44.6 °F /  7.0 °C 29.3in /  992.1hPa West 5.6mph /  9.0km/h 8.7mph /  14.0km/h 97% 0.04in /  1.0mm
13:50 45.9 °F /  7.7 °C 46.4 °F /  8.0 °C 29.3in /  992.1hPa Calm   6.7mph /  10.8km/h 98% 0.03in /  0.8mm
13:55 45.9 °F /  7.7 °C 46.4 °F /  8.0 °C 29.3in /  992.1hPa WSW 8.5mph /  13.7km/h 8.7mph /  14.0km/h 98% 0.03in /  0.8mm
14:00 45.9 °F /  7.7 °C 46.4 °F /  8.0 °C 29.3in /  993.1hPa WSW 5.6mph /  9.0km/h 8.7mph /  14.0km/h 98% 0.03in /  0.8mm
14:05 45.7 °F /  7.6 °C 46.4 °F /  8.0 °C 29.3in /  993.1hPa WSW 4.9mph /  7.9km/h 8.7mph /  14.0km/h 98% 0.02in /  0.5mm
14:10 45.5 °F /  7.5 °C 46.4 °F /  8.0 °C 29.3in /  993.1hPa WSW 6.5mph /  10.5km/h 7.8mph /  12.6km/h 98% 0.02in /  0.5mm
14:20 46 °F /  7.8 °C 46.4 °F /  8.0 °C 29.3in /  992.1hPa Calm   6.5mph /  10.5km/h 98% 0.02in /  0.5mm
14:30 45.9 °F /  7.7 °C 46.4 °F /  8.0 °C 29.3in /  993.1hPa WSW 6mph /  9.7km/h 6.5mph /  10.5km/h 98% 0.01in /  0.3mm
14:40 45.5 °F /  7.5 °C 46.4 °F /  8.0 °C 29.3in /  993.1hPa WSW 9.8mph /  15.8km/h 10.1mph /  16.3km/h 98% 0.01in /  0.3mm
14:50 45.5 °F /  7.5 °C 46.4 °F /  8.0 °C 29.4in /  994.1hPa WSW 7.6mph /  12.2km/h 10.1mph /  16.3km/h 98% 0.01in /  0.3mm
15:00 45.3 °F /  7.4 °C 44.6 °F /  7.0 °C 29.3in /  993.1hPa WSW 8.7mph /  14.0km/h 10.5mph /  16.9km/h 98% 0.01in /  0.3mm
15:10 45 °F /  7.2 °C 44.6 °F /  7.0 °C 29.3in /  993.1hPa West 15.4mph /  24.8km/h 15.4mph /  24.8km/h 98% 0in /  0.0mm
15:20 44.8 °F /  7.1 °C 44.6 °F /  7.0 °C 29.4in /  994.1hPa West 16.6mph /  26.7km/h 16.6mph /  26.7km/h 98% 0.01in /  0.3mm
15:30 44.6 °F /  7.0 °C 44.6 °F /  7.0 °C 29.4in /  994.1hPa West 9.4mph /  15.1km/h 16.6mph /  26.7km/h 98% 0.02in /  0.5mm
15:45 44.6 °F /  7.0 °C 44.6 °F /  7.0 °C 29.4in /  995.1hPa WSW 8.7mph /  14.0km/h 11mph /  17.7km/h 98% 0.03in /  0.8mm
15:50 44.2 °F /  6.8 °C 44.6 °F /  7.0 °C 29.4in /  995.1hPa WNW 12.3mph /  19.8km/h 12.3mph /  19.8km/h 98% 0.03in /  0.8mm
16:00 44.1 °F /  6.7 °C 42.8 °F /  6.0 °C 29.4in /  995.1hPa West 4mph /  6.4km/h 12.3mph /  19.8km/h 97% 0.03in /  0.8mm
16:10 43.5 °F /  6.4 °C 42.8 °F /  6.0 °C 29.4in /  995.1hPa West 9.6mph /  15.4km/h 10.5mph /  16.9km/h 97% 0.03in /  0.8mm
16:20 43.5 °F /  6.4 °C 42.8 °F /  6.0 °C 29.4in /  995.1hPa WNW 9.8mph /  15.8km/h 10.7mph /  17.2km/h 97% 0.02in /  0.5mm
16:30 43.3 °F /  6.3 °C 42.8 °F /  6.0 °C 29.4in /  994.1hPa West 3.6mph /  5.8km/h 16.3mph /  26.2km/h 97% 0.01in /  0.3mm
16:40 43.5 °F /  6.4 °C 42.8 °F /  6.0 °C 29.4in /  994.1hPa WNW 13.2mph /  21.2km/h 13.2mph /  21.2km/h 97% 0.01in /  0.3mm
16:50 43.7 °F /  6.5 °C 42.8 °F /  6.0 °C 29.4in /  995.1hPa West 11mph /  17.7km/h 13.2mph /  21.2km/h 97% 0in /  0.0mm
17:00 43.7 °F /  6.5 °C 42.8 °F /  6.0 °C 29.4in /  995.1hPa WNW 6.3mph /  10.1km/h 10.7mph /  17.2km/h 97% 0in /  0.0mm
17:10 44.1 °F /  6.7 °C 42.8 °F /  6.0 °C 29.4in /  995.1hPa West 4.3mph /  6.9km/h 7.6mph /  12.2km/h 96% 0in /  0.0mm
17:20 44.8 °F /  7.1 °C 44.6 °F /  7.0 °C 29.4in /  995.1hPa West 7.8mph /  12.6km/h 8.7mph /  14.0km/h 96% 0in /  0.0mm
17:30 45.5 °F /  7.5 °C 44.6 °F /  7.0 °C 29.4in /  995.1hPa NNW 7.8mph /  12.6km/h 15.4mph /  24.8km/h 93% 0in /  0.0mm
17:40 46 °F /  7.8 °C 42.8 °F /  6.0 °C 29.4in /  995.1hPa WSW 4.3mph /  6.9km/h 11mph /  17.7km/h 91% 0in /  0.0mm
17:50 46 °F /  7.8 °C 42.8 °F /  6.0 °C 29.4in /  996.2hPa WSW 6.5mph /  10.5km/h 9.8mph /  15.8km/h 89% 0in /  0.0mm
18:00 45.5 °F /  7.5 °C 42.8 °F /  6.0 °C 29.4in /  996.2hPa West 6.5mph /  10.5km/h 12.3mph /  19.8km/h 88% 0in /  0.0mm
18:10 45.3 °F /  7.4 °C 42.8 °F /  6.0 °C 29.4in /  996.2hPa West 7.6mph /  12.2km/h 15.2mph /  24.5km/h 88% 0in /  0.0mm
18:20 45.1 °F /  7.3 °C 42.8 °F /  6.0 °C 29.4in /  996.8hPa WSW 12.5mph /  20.1km/h 12.5mph /  20.1km/h 88% 0in /  0.0mm
18:30 44.8 °F /  7.1 °C 41 °F /  5.0 °C 29.4in /  996.2hPa West 6.3mph /  10.1km/h 12.8mph /  20.6km/h 86% 0in /  0.0mm
18:40 44.2 °F /  6.8 °C 41 °F /  5.0 °C 29.4in /  996.2hPa West 11.4mph /  18.3km/h 15.2mph /  24.5km/h 86% 0in /  0.0mm
18:50 43.7 °F /  6.5 °C 41 °F /  5.0 °C 29.4in /  996.8hPa West 10.7mph /  17.2km/h 16.3mph /  26.2km/h 86% 0in /  0.0mm
19:00 43.3 °F /  6.3 °C 39.2 °F /  4.0 °C 29.4in /  996.8hPa WSW 7.6mph /  12.2km/h 11.2mph /  18.0km/h 86% 0in /  0.0mm
19:10 43 °F /  6.1 °C 39.2 °F /  4.0 °C 29.4in /  996.8hPa WSW 7.4mph /  11.9km/h 14.3mph /  23.0km/h 87% 0in /  0.0mm
19:20 42.4 °F /  5.8 °C 39.2 °F /  4.0 °C 29.4in /  996.8hPa WSW 5.8mph /  9.3km/h 10.1mph /  16.3km/h 88% 0in /  0.0mm
19:30 41.7 °F /  5.4 °C 39.2 °F /  4.0 °C 29.5in /  997.9hPa Calm   8.5mph /  13.7km/h 89% 0in /  0.0mm
19:40 41.4 °F /  5.2 °C 39.2 °F /  4.0 °C 29.5in /  997.9hPa WSW 6mph /  9.7km/h 9.2mph /  14.8km/h 91% 0in /  0.0mm
19:50 41 °F /  5.0 °C 39.2 °F /  4.0 °C 29.5in /  997.9hPa SW 4.9mph /  7.9km/h 8.1mph /  13.0km/h 91% 0in /  0.0mm
20:00 40.8 °F /  4.9 °C 39.2 °F /  4.0 °C 29.5in /  997.9hPa WSW 5.4mph /  8.7km/h 8.7mph /  14.0km/h 93% 0in /  0.0mm
20:10 40.5 °F /  4.7 °C 39.2 °F /  4.0 °C 29.5in /  997.9hPa WSW 5.8mph /  9.3km/h 7.6mph /  12.2km/h 93% 0in /  0.0mm
20:20 40.5 °F /  4.7 °C 39.2 °F /  4.0 °C 29.5in /  997.9hPa WSW 8.1mph /  13.0km/h 10.1mph /  16.3km/h 94% 0in /  0.0mm
20:30 40.3 °F /  4.6 °C 39.2 °F /  4.0 °C 29.5in /  998.9hPa WSW 6.9mph /  11.1km/h 8.5mph /  13.7km/h 94% 0in /  0.0mm
20:40 39.9 °F /  4.4 °C 37.4 °F /  3.0 °C 29.5in /  998.9hPa WSW 6.3mph /  10.1km/h 9.6mph /  15.4km/h 94% 0in /  0.0mm
20:50 39.6 °F /  4.2 °C 37.4 °F /  3.0 °C 29.5in /  998.9hPa Calm   7.8mph /  12.6km/h 94% 0in /  0.0mm
21:00 39.4 °F /  4.1 °C 37.4 °F /  3.0 °C 29.5in /  998.9hPa WSW 4.9mph /  7.9km/h 8.1mph /  13.0km/h 94% 0in /  0.0mm
21:10 39.4 °F /  4.1 °C 37.4 °F /  3.0 °C 29.5in /  998.9hPa WSW 5.8mph /  9.3km/h 7.2mph /  11.6km/h 95% 0in /  0.0mm
21:20 39 °F /  3.9 °C 37.4 °F /  3.0 °C 29.5in /  998.9hPa WSW 4.9mph /  7.9km/h 6.3mph /  10.1km/h 94% 0in /  0.0mm
21:30 38.8 °F /  3.8 °C 37.4 °F /  3.0 °C 29.5in /  998.9hPa WSW 6.7mph /  10.8km/h 6.7mph /  10.8km/h 94% 0in /  0.0mm
21:40 38.8 °F /  3.8 °C 37.4 °F /  3.0 °C 29.5in /  998.9hPa WSW 5.8mph /  9.3km/h 8.1mph /  13.0km/h 95% 0in /  0.0mm
21:50 38.8 °F /  3.8 °C 37.4 °F /  3.0 °C 29.5in /  998.9hPa WSW 6mph /  9.7km/h 7.4mph /  11.9km/h 96% 0in /  0.0mm
22:00 38.7 °F /  3.7 °C 37.4 °F /  3.0 °C 29.5in /  998.9hPa WSW 8.7mph /  14.0km/h 8.7mph /  14.0km/h 96% 0in /  0.0mm
22:10 38.5 °F /  3.6 °C 37.4 °F /  3.0 °C 29.5in /  998.9hPa WSW 5.8mph /  9.3km/h 8.1mph /  13.0km/h 96% 0in /  0.0mm
22:20 38.7 °F /  3.7 °C 37.4 °F /  3.0 °C 29.5in /  997.9hPa WSW 6mph /  9.7km/h 8.7mph /  14.0km/h 97% 0in /  0.0mm
22:30 38.8 °F /  3.8 °C 37.4 °F /  3.0 °C 29.5in /  998.9hPa WSW 7.4mph /  11.9km/h 12.3mph /  19.8km/h 97% 0in /  0.0mm
22:40 38.7 °F /  3.7 °C 37.4 °F /  3.0 °C 29.5in /  998.9hPa WSW 5.4mph /  8.7km/h 8.1mph /  13.0km/h 97% 0in /  0.0mm
22:50 38.1 °F /  3.4 °C 37.4 °F /  3.0 °C 29.5in /  998.9hPa WSW 4.9mph /  7.9km/h 5.4mph /  8.7km/h 96% 0in /  0.0mm
23:00 37.9 °F /  3.3 °C 37.4 °F /  3.0 °C 29.5in /  998.9hPa WSW 6.5mph /  10.5km/h 6.5mph /  10.5km/h 96% 0in /  0.0mm
23:10 38.1 °F /  3.4 °C 37.4 °F /  3.0 °C 29.5in /  998.9hPa WSW 5.4mph /  8.7km/h 6.9mph /  11.1km/h 97% 0in /  0.0mm
23:20 37.9 °F /  3.3 °C 37.4 °F /  3.0 °C 29.5in /  998.9hPa SW 6mph /  9.7km/h 6mph /  9.7km/h 97% 0in /  0.0mm
23:30 38.3 °F /  3.5 °C 39.2 °F /  4.0 °C 29.5in /  999.9hPa WSW 7.4mph /  11.9km/h 7.6mph /  12.2km/h 98% 0in /  0.0mm
23:40 38.5 °F /  3.6 °C 39.2 °F /  4.0 °C 29.5in /  999.9hPa WSW 5.8mph /  9.3km/h 8.5mph /  13.7km/h 98% 0in /  0.0mm
23:50 38.7 °F /  3.7 °C 39.2 °F /  4.0 °C 29.5in /  999.9hPa WSW 5.6mph /  9.0km/h 8.5mph /  13.7km/h 98% 0in /  0.0mm
Données Historique de Météo Turbie

Mise a jour : 20/06/2018 19:03:18
Généré par Cumulus 1.9.4 (1099)